Leroy, Indiana
Current Conditions -  °F | °C
As of 8:56 PM on Monday 26 Jan 2015 (Local Time) from KVPZ Reporting Station
Light Snow Light Snow  
Wind Chill: 15°   Ceiling: 1900
Heat Index: 23°   Visibility: 3mi
Dew Point: 18°   Wind: 7mph
Humidity: 81%   Direction: 120°ESE
Pressure: 29.92"   Gusts: NA
Location:  41.36°N, 87.27°W
Report Text: KVPZ 270256Z AUTO 12006KT 3SM -SN BKN019 BKN030 OVC038 M05/M08 A2992 RMK AO2 SNB15 SLP145 P0000 60000 T10501078 51005 TSNO
Loading
Personal Weather Stations






























Interactive Weather Map New forecast layout! Learn more

10-Day Weather Forecast

Advertisements
Track Severe Weather on mobile